sensor_id;sensor_type;location;lat;lon;timestamp;noise_LAeq;noise_LA_min;noise_LA_max;noise_LA01;noise_LA95
41518;Laerm;27249;48.094;-1.690;2023-05-13T00:01:22;45.45;40.71;57.58;;
41518;Laerm;27249;48.094;-1.690;2023-05-13T00:03:47;51.41;41.22;60.06;;
41518;Laerm;27249;48.094;-1.690;2023-05-13T00:06:13;53.97;40.89;70.97;;
41518;Laerm;27249;48.094;-1.690;2023-05-13T00:08:38;44.58;40.53;57.88;;
41518;Laerm;27249;48.094;-1.690;2023-05-13T00:11:03;48.40;40.43;59.93;;
41518;Laerm;27249;48.094;-1.690;2023-05-13T00:13:28;49.58;41.46;62.79;;
41518;Laerm;27249;48.094;-1.690;2023-05-13T00:15:54;52.34;41.14;66.01;;
41518;Laerm;27249;48.094;-1.690;2023-05-13T00:18:19;47.35;40.43;59.01;;
41518;Laerm;27249;48.094;-1.690;2023-05-13T00:20:44;46.97;40.43;57.73;;
41518;Laerm;27249;48.094;-1.690;2023-05-13T00:23:11;50.96;41.53;62.46;;
41518;Laerm;27249;48.094;-1.690;2023-05-13T00:25:36;50.53;42.29;60.37;;
41518;Laerm;27249;48.094;-1.690;2023-05-13T00:28:02;49.38;40.80;60.67;;
41518;Laerm;27249;48.094;-1.690;2023-05-13T00:30:27;50.71;40.62;62.12;;
41518;Laerm;27249;48.094;-1.690;2023-05-13T00:32:52;48.44;40.33;62.76;;
41518;Laerm;27249;48.094;-1.690;2023-05-13T00:35:17;51.56;41.89;68.33;;
41518;Laerm;27249;48.094;-1.690;2023-05-13T00:37:43;50.95;40.89;64.68;;
41518;Laerm;27249;48.094;-1.690;2023-05-13T00:40:21;53.18;40.89;65.62;;
41518;Laerm;27249;48.094;-1.690;2023-05-13T00:42:46;50.16;39.70;63.62;;
41518;Laerm;27249;48.094;-1.690;2023-05-13T00:45:12;55.22;40.33;75.22;;
41518;Laerm;27249;48.094;-1.690;2023-05-13T00:47:38;50.12;41.38;62.92;;
41518;Laerm;27249;48.094;-1.690;2023-05-13T00:50:03;49.35;40.33;61.69;;
41518;Laerm;27249;48.094;-1.690;2023-05-13T00:52:29;52.76;41.14;64.56;;
41518;Laerm;27249;48.094;-1.690;2023-05-13T00:54:54;44.26;40.36;59.28;;
41518;Laerm;27249;48.094;-1.690;2023-05-13T00:57:19;54.47;40.62;66.18;;
41518;Laerm;27249;48.094;-1.690;2023-05-13T00:59:45;50.11;40.53;60.09;;
41518;Laerm;27249;48.094;-1.690;2023-05-13T01:02:15;49.00;40.98;60.94;;
41518;Laerm;27249;48.094;-1.690;2023-05-13T01:04:53;49.11;40.43;59.33;;
41518;Laerm;27249;48.094;-1.690;2023-05-13T01:07:26;48.23;40.23;63.34;;
41518;Laerm;27249;48.094;-1.690;2023-05-13T01:09:57;47.50;40.62;59.72;;
41518;Laerm;27249;48.094;-1.690;2023-05-13T01:12:32;48.75;41.75;59.72;;
41518;Laerm;27249;48.094;-1.690;2023-05-13T01:15:06;50.35;41.38;62.65;;
41518;Laerm;27249;48.094;-1.690;2023-05-13T01:20:10;51.66;40.80;62.92;;
41518;Laerm;27249;48.094;-1.690;2023-05-13T01:22:35;48.33;40.13;61.18;;
41518;Laerm;27249;48.094;-1.690;2023-05-13T01:25:00;54.03;41.68;67.93;;
41518;Laerm;27249;48.094;-1.690;2023-05-13T01:27:26;51.35;42.41;61.78;;
41518;Laerm;27249;48.094;-1.690;2023-05-13T01:29:51;49.14;40.03;61.79;;
41518;Laerm;27249;48.094;-1.690;2023-05-13T01:32:19;45.36;40.62;55.88;;
41518;Laerm;27249;48.094;-1.690;2023-05-13T01:34:45;50.89;40.80;64.07;;
41518;Laerm;27249;48.094;-1.690;2023-05-13T01:37:11;49.78;40.62;60.53;;
41518;Laerm;27249;48.094;-1.690;2023-05-13T01:39:36;49.33;41.14;64.60;;
41518;Laerm;27249;48.094;-1.690;2023-05-13T01:42:02;53.56;40.89;66.91;;
41518;Laerm;27249;48.094;-1.690;2023-05-13T01:44:27;49.58;40.43;63.45;;
41518;Laerm;27249;48.094;-1.690;2023-05-13T01:46:52;43.48;40.98;47.16;;
41518;Laerm;27249;48.094;-1.690;2023-05-13T01:49:18;47.50;41.06;58.10;;
41518;Laerm;27249;48.094;-1.690;2023-05-13T01:51:43;47.68;40.43;60.29;;
41518;Laerm;27249;48.094;-1.690;2023-05-13T01:54:08;47.26;41.06;59.73;;
41518;Laerm;27249;48.094;-1.690;2023-05-13T01:56:34;51.30;41.75;62.70;;
41518;Laerm;27249;48.094;-1.690;2023-05-13T01:58:59;51.46;40.33;62.60;;
41518;Laerm;27249;48.094;-1.690;2023-05-13T02:01:25;48.88;41.06;59.33;;
41518;Laerm;27249;48.094;-1.690;2023-05-13T02:03:50;49.77;41.53;59.48;;
41518;Laerm;27249;48.094;-1.690;2023-05-13T02:06:15;49.10;40.98;58.04;;
41518;Laerm;27249;48.094;-1.690;2023-05-13T02:08:40;46.36;41.06;59.42;;
41518;Laerm;27249;48.094;-1.690;2023-05-13T02:11:06;45.21;40.89;55.54;;
41518;Laerm;27249;48.094;-1.690;2023-05-13T02:13:31;46.32;40.23;57.98;;
41518;Laerm;27249;48.094;-1.690;2023-05-13T02:15:56;50.30;40.80;60.31;;
41518;Laerm;27249;48.094;-1.690;2023-05-13T02:18:22;45.49;41.14;55.21;;
41518;Laerm;27249;48.094;-1.690;2023-05-13T02:20:47;53.88;42.03;64.83;;
41518;Laerm;27249;48.094;-1.690;2023-05-13T02:23:13;49.98;41.30;64.27;;
41518;Laerm;27249;48.094;-1.690;2023-05-13T02:25:39;47.31;40.98;60.89;;
41518;Laerm;27249;48.094;-1.690;2023-05-13T02:28:05;48.47;40.80;64.68;;
41518;Laerm;27249;48.094;-1.690;2023-05-13T02:30:30;50.11;42.09;59.55;;
41518;Laerm;27249;48.094;-1.690;2023-05-13T02:32:56;47.89;41.30;57.76;;
41518;Laerm;27249;48.094;-1.690;2023-05-13T02:35:21;50.83;41.06;61.91;;
41518;Laerm;27249;48.094;-1.690;2023-05-13T02:37:46;51.21;41.75;62.10;;
41518;Laerm;27249;48.094;-1.690;2023-05-13T02:40:12;51.46;41.46;64.12;;
41518;Laerm;27249;48.094;-1.690;2023-05-13T02:42:37;50.60;41.22;62.61;;
41518;Laerm;27249;48.094;-1.690;2023-05-13T02:45:03;50.09;41.53;60.05;;
41518;Laerm;27249;48.094;-1.690;2023-05-13T02:47:28;49.77;41.03;61.04;;
41518;Laerm;27249;48.094;-1.690;2023-05-13T02:49:54;50.56;41.22;63.43;;
41518;Laerm;27249;48.094;-1.690;2023-05-13T02:52:20;52.30;40.80;63.13;;
41518;Laerm;27249;48.094;-1.690;2023-05-13T02:54:45;49.27;40.63;63.90;;
41518;Laerm;27249;48.094;-1.690;2023-05-13T02:57:10;49.72;41.22;62.24;;
41518;Laerm;27249;48.094;-1.690;2023-05-13T02:59:35;50.96;41.96;61.64;;
41518;Laerm;27249;48.094;-1.690;2023-05-13T03:02:01;49.80;41.14;64.13;;
41518;Laerm;27249;48.094;-1.690;2023-05-13T03:04:26;51.82;41.46;69.58;;
41518;Laerm;27249;48.094;-1.690;2023-05-13T03:06:51;51.00;41.30;65.51;;
41518;Laerm;27249;48.094;-1.690;2023-05-13T03:09:17;45.58;41.30;57.08;;
41518;Laerm;27249;48.094;-1.690;2023-05-13T03:11:42;47.50;41.30;62.39;;
41518;Laerm;27249;48.094;-1.690;2023-05-13T03:14:07;46.28;40.71;59.69;;
41518;Laerm;27249;48.094;-1.690;2023-05-13T03:16:32;48.43;41.06;61.99;;
41518;Laerm;27249;48.094;-1.690;2023-05-13T03:18:57;51.08;42.71;60.93;;
41518;Laerm;27249;48.094;-1.690;2023-05-13T03:21:23;51.28;41.53;65.34;;
41518;Laerm;27249;48.094;-1.690;2023-05-13T03:23:48;51.04;41.61;65.07;;
41518;Laerm;27249;48.094;-1.690;2023-05-13T03:26:13;49.75;41.61;62.88;;
41518;Laerm;27249;48.094;-1.690;2023-05-13T03:28:38;48.09;41.14;63.85;;
41518;Laerm;27249;48.094;-1.690;2023-05-13T03:31:04;52.24;41.22;64.17;;
41518;Laerm;27249;48.094;-1.690;2023-05-13T03:33:29;52.19;41.22;64.32;;
41518;Laerm;27249;48.094;-1.690;2023-05-13T03:35:54;50.99;40.80;65.19;;
41518;Laerm;27249;48.094;-1.690;2023-05-13T03:38:20;51.49;42.71;65.78;;
41518;Laerm;27249;48.094;-1.690;2023-05-13T03:40:45;53.37;41.68;66.96;;
41518;Laerm;27249;48.094;-1.690;2023-05-13T03:43:11;53.23;42.16;65.54;;
41518;Laerm;27249;48.094;-1.690;2023-05-13T03:45:36;53.89;41.96;67.91;;
41518;Laerm;27249;48.094;-1.690;2023-05-13T03:48:01;51.08;42.76;63.48;;
41518;Laerm;27249;48.094;-1.690;2023-05-13T03:50:26;52.06;42.59;62.52;;
41518;Laerm;27249;48.094;-1.690;2023-05-13T03:52:51;54.99;45.45;64.40;;
41518;Laerm;27249;48.094;-1.690;2023-05-13T03:55:17;51.28;42.35;66.64;;
41518;Laerm;27249;48.094;-1.690;2023-05-13T03:57:43;52.83;43.29;64.24;;
41518;Laerm;27249;48.094;-1.690;2023-05-13T04:00:09;54.06;43.04;64.34;;
41518;Laerm;27249;48.094;-1.690;2023-05-13T04:02:34;49.76;42.59;61.92;;
41518;Laerm;27249;48.094;-1.690;2023-05-13T04:04:59;51.14;42.09;63.75;;
41518;Laerm;27249;48.094;-1.690;2023-05-13T04:07:25;53.07;42.65;63.97;;
41518;Laerm;27249;48.094;-1.690;2023-05-13T04:09:50;52.75;43.49;63.01;;
41518;Laerm;27249;48.094;-1.690;2023-05-13T04:12:15;52.79;42.98;68.53;;
41518;Laerm;27249;48.094;-1.690;2023-05-13T04:14:42;54.98;43.14;67.89;;
41518;Laerm;27249;48.094;-1.690;2023-05-13T04:17:07;49.21;42.82;59.37;;
41518;Laerm;27249;48.094;-1.690;2023-05-13T04:19:32;53.16;43.72;63.42;;
41518;Laerm;27249;48.094;-1.690;2023-05-13T04:21:57;54.15;44.23;63.13;;
41518;Laerm;27249;48.094;-1.690;2023-05-13T04:24:23;51.49;42.29;60.47;;
41518;Laerm;27249;48.094;-1.690;2023-05-13T04:26:48;52.91;42.29;62.89;;
41518;Laerm;27249;48.094;-1.690;2023-05-13T04:29:13;52.21;42.76;63.65;;
41518;Laerm;27249;48.094;-1.690;2023-05-13T04:31:38;51.48;42.41;61.66;;
41518;Laerm;27249;48.094;-1.690;2023-05-13T04:34:04;52.71;43.09;62.30;;
41518;Laerm;27249;48.094;-1.690;2023-05-13T04:36:29;50.20;42.59;61.94;;
41518;Laerm;27249;48.094;-1.690;2023-05-13T04:38:55;52.75;42.41;62.40;;
41518;Laerm;27249;48.094;-1.690;2023-05-13T04:41:20;50.07;42.76;63.19;;
41518;Laerm;27249;48.094;-1.690;2023-05-13T04:43:45;51.47;42.82;60.88;;
41518;Laerm;27249;48.094;-1.690;2023-05-13T04:46:11;55.24;43.39;68.78;;
41518;Laerm;27249;48.094;-1.690;2023-05-13T04:48:36;49.61;42.09;59.60;;
41518;Laerm;27249;48.094;-1.690;2023-05-13T04:51:01;52.89;43.34;61.34;;
41518;Laerm;27249;48.094;-1.690;2023-05-13T04:53:26;52.71;43.14;59.34;;
41518;Laerm;27249;48.094;-1.690;2023-05-13T04:55:51;51.88;41.61;61.85;;
41518;Laerm;27249;48.094;-1.690;2023-05-13T04:58:24;54.18;42.35;65.86;;
41518;Laerm;27249;48.094;-1.690;2023-05-13T05:00:50;52.60;44.38;61.39;;
41518;Laerm;27249;48.094;-1.690;2023-05-13T05:03:15;55.08;41.96;76.46;;
41518;Laerm;27249;48.094;-1.690;2023-05-13T05:05:40;54.86;42.85;76.07;;
41518;Laerm;27249;48.094;-1.690;2023-05-13T05:08:05;51.31;42.29;66.02;;
41518;Laerm;27249;48.094;-1.690;2023-05-13T05:10:31;54.53;42.71;65.37;;
41518;Laerm;27249;48.094;-1.690;2023-05-13T05:12:56;53.35;43.58;61.31;;
41518;Laerm;27249;48.094;-1.690;2023-05-13T05:15:21;53.72;44.07;62.93;;
41518;Laerm;27249;48.094;-1.690;2023-05-13T05:17:47;51.59;42.29;62.17;;
41518;Laerm;27249;48.094;-1.690;2023-05-13T05:20:12;52.36;43.44;63.37;;
41518;Laerm;27249;48.094;-1.690;2023-05-13T05:22:37;48.71;42.59;58.67;;
41518;Laerm;27249;48.094;-1.690;2023-05-13T05:25:03;51.57;43.04;62.71;;
41518;Laerm;27249;48.094;-1.690;2023-05-13T05:27:28;49.89;42.98;60.89;;
41518;Laerm;27249;48.094;-1.690;2023-05-13T05:29:53;52.37;42.59;62.23;;
41518;Laerm;27249;48.094;-1.690;2023-05-13T05:32:18;53.71;43.72;67.77;;
41518;Laerm;27249;48.094;-1.690;2023-05-13T05:34:44;47.62;41.96;59.08;;
41518;Laerm;27249;48.094;-1.690;2023-05-13T05:37:09;54.66;44.27;73.10;;
41518;Laerm;27249;48.094;-1.690;2023-05-13T05:39:34;54.69;44.76;70.80;;
41518;Laerm;27249;48.094;-1.690;2023-05-13T05:42:00;52.05;42.53;66.38;;
41518;Laerm;27249;48.094;-1.690;2023-05-13T05:44:25;52.34;43.72;60.82;;
41518;Laerm;27249;48.094;-1.690;2023-05-13T05:46:50;49.88;43.44;58.36;;
41518;Laerm;27249;48.094;-1.690;2023-05-13T05:49:16;51.11;43.54;59.31;;
41518;Laerm;27249;48.094;-1.690;2023-05-13T05:51:41;54.18;44.27;64.52;;
41518;Laerm;27249;48.094;-1.690;2023-05-13T05:54:07;55.65;46.89;63.45;;
41518;Laerm;27249;48.094;-1.690;2023-05-13T05:56:32;54.37;46.10;60.87;;
41518;Laerm;27249;48.094;-1.690;2023-05-13T05:58:57;54.10;45.14;63.93;;
41518;Laerm;27249;48.094;-1.690;2023-05-13T06:01:22;54.93;43.24;64.91;;
41518;Laerm;27249;48.094;-1.690;2023-05-13T06:03:48;53.01;44.43;63.37;;
41518;Laerm;27249;48.094;-1.690;2023-05-13T06:06:13;52.73;44.07;61.44;;
41518;Laerm;27249;48.094;-1.690;2023-05-13T06:08:38;53.56;44.27;64.99;;
41518;Laerm;27249;48.094;-1.690;2023-05-13T06:11:03;55.74;43.68;74.24;;
41518;Laerm;27249;48.094;-1.690;2023-05-13T06:13:29;51.40;42.41;61.10;;
41518;Laerm;27249;48.094;-1.690;2023-05-13T06:15:54;54.29;43.63;61.39;;
41518;Laerm;27249;48.094;-1.690;2023-05-13T06:18:19;55.16;45.45;65.27;;
41518;Laerm;27249;48.094;-1.690;2023-05-13T06:20:45;58.07;44.03;77.90;;
41518;Laerm;27249;48.094;-1.690;2023-05-13T06:23:10;54.13;46.10;65.93;;
41518;Laerm;27249;48.094;-1.690;2023-05-13T06:25:35;54.18;46.73;62.19;;
41518;Laerm;27249;48.094;-1.690;2023-05-13T06:28:00;53.71;45.80;60.59;;
41518;Laerm;27249;48.094;-1.690;2023-05-13T06:30:26;52.68;44.11;62.00;;
41518;Laerm;27249;48.094;-1.690;2023-05-13T06:32:51;54.01;45.01;68.74;;
41518;Laerm;27249;48.094;-1.690;2023-05-13T06:35:19;54.63;45.60;63.73;;
41518;Laerm;27249;48.094;-1.690;2023-05-13T06:37:44;61.76;44.19;87.72;;
41518;Laerm;27249;48.094;-1.690;2023-05-13T06:40:09;57.01;46.89;79.35;;
41518;Laerm;27249;48.094;-1.690;2023-05-13T06:42:34;55.77;45.99;69.83;;
41518;Laerm;27249;48.094;-1.690;2023-05-13T06:45:04;55.70;48.36;65.58;;
41518;Laerm;27249;48.094;-1.690;2023-05-13T06:47:30;58.19;48.87;69.89;;
41518;Laerm;27249;48.094;-1.690;2023-05-13T06:49:55;56.78;51.70;62.62;;
41518;Laerm;27249;48.094;-1.690;2023-05-13T06:52:20;56.06;49.91;62.33;;
41518;Laerm;27249;48.094;-1.690;2023-05-13T06:54:46;60.64;49.18;80.84;;
41518;Laerm;27249;48.094;-1.690;2023-05-13T06:57:11;55.16;46.40;62.11;;
41518;Laerm;27249;48.094;-1.690;2023-05-13T06:59:36;54.25;46.45;61.24;;
41518;Laerm;27249;48.094;-1.690;2023-05-13T07:02:01;54.30;43.19;62.61;;
41518;Laerm;27249;48.094;-1.690;2023-05-13T07:04:26;56.33;48.55;65.77;;
41518;Laerm;27249;48.094;-1.690;2023-05-13T07:06:54;55.40;46.66;62.91;;
41518;Laerm;27249;48.094;-1.690;2023-05-13T07:09:19;55.55;43.72;64.65;;
41518;Laerm;27249;48.094;-1.690;2023-05-13T07:11:44;56.66;47.40;65.53;;
41518;Laerm;27249;48.094;-1.690;2023-05-13T07:14:10;55.60;47.14;62.92;;
41518;Laerm;27249;48.094;-1.690;2023-05-13T07:16:35;54.92;46.20;65.59;;
41518;Laerm;27249;48.094;-1.690;2023-05-13T07:19:00;57.90;47.50;68.77;;
41518;Laerm;27249;48.094;-1.690;2023-05-13T07:21:25;55.93;47.48;63.99;;
41518;Laerm;27249;48.094;-1.690;2023-05-13T07:23:51;57.37;46.89;66.02;;
41518;Laerm;27249;48.094;-1.690;2023-05-13T07:26:16;56.49;49.30;65.97;;
41518;Laerm;27249;48.094;-1.690;2023-05-13T07:28:41;55.86;46.52;63.68;;
41518;Laerm;27249;48.094;-1.690;2023-05-13T07:31:07;56.93;46.87;64.82;;
41518;Laerm;27249;48.094;-1.690;2023-05-13T07:33:32;55.24;48.40;62.60;;
41518;Laerm;27249;48.094;-1.690;2023-05-13T07:35:58;56.17;50.92;62.15;;
41518;Laerm;27249;48.094;-1.690;2023-05-13T07:38:23;54.99;47.42;65.34;;
41518;Laerm;27249;48.094;-1.690;2023-05-13T07:40:48;58.14;47.99;70.53;;
41518;Laerm;27249;48.094;-1.690;2023-05-13T07:43:13;56.34;48.29;63.25;;
41518;Laerm;27249;48.094;-1.690;2023-05-13T07:45:41;63.50;47.84;84.03;;
41518;Laerm;27249;48.094;-1.690;2023-05-13T07:48:07;57.10;46.97;62.48;;
41518;Laerm;27249;48.094;-1.690;2023-05-13T07:50:33;57.15;47.58;65.28;;
41518;Laerm;27249;48.094;-1.690;2023-05-13T07:52:59;56.58;49.77;68.68;;
41518;Laerm;27249;48.094;-1.690;2023-05-13T07:55:24;56.28;49.28;64.45;;
41518;Laerm;27249;48.094;-1.690;2023-05-13T07:57:49;55.62;45.83;63.20;;
41518;Laerm;27249;48.094;-1.690;2023-05-13T08:00:15;57.08;50.77;63.42;;
41518;Laerm;27249;48.094;-1.690;2023-05-13T08:02:41;57.58;49.52;63.67;;
41518;Laerm;27249;48.094;-1.690;2023-05-13T08:05:06;56.10;50.11;63.68;;
41518;Laerm;27249;48.094;-1.690;2023-05-13T08:07:32;55.86;49.36;63.71;;
41518;Laerm;27249;48.094;-1.690;2023-05-13T08:09:57;56.61;49.52;65.58;;
41518;Laerm;27249;48.094;-1.690;2023-05-13T08:12:22;56.48;46.50;67.80;;
41518;Laerm;27249;48.094;-1.690;2023-05-13T08:14:47;56.02;48.69;62.08;;
41518;Laerm;27249;48.094;-1.690;2023-05-13T08:17:13;57.18;48.23;65.35;;
41518;Laerm;27249;48.094;-1.690;2023-05-13T08:19:38;56.28;48.40;64.47;;
41518;Laerm;27249;48.094;-1.690;2023-05-13T08:22:03;55.01;46.52;65.09;;
41518;Laerm;27249;48.094;-1.690;2023-05-13T08:24:29;56.26;50.02;63.20;;
41518;Laerm;27249;48.094;-1.690;2023-05-13T08:26:54;57.51;51.43;73.23;;
41518;Laerm;27249;48.094;-1.690;2023-05-13T08:29:20;57.04;49.23;75.50;;
41518;Laerm;27249;48.094;-1.690;2023-05-13T08:31:45;56.55;50.01;65.16;;
41518;Laerm;27249;48.094;-1.690;2023-05-13T08:34:11;56.90;51.12;63.85;;
41518;Laerm;27249;48.094;-1.690;2023-05-13T08:36:36;56.70;50.08;63.17;;
41518;Laerm;27249;48.094;-1.690;2023-05-13T08:39:01;56.43;49.08;63.99;;
41518;Laerm;27249;48.094;-1.690;2023-05-13T08:41:28;56.80;49.08;63.18;;
41518;Laerm;27249;48.094;-1.690;2023-05-13T08:43:54;56.74;50.66;69.76;;
41518;Laerm;27249;48.094;-1.690;2023-05-13T08:46:21;56.14;50.77;63.41;;
41518;Laerm;27249;48.094;-1.690;2023-05-13T08:48:49;56.61;50.74;61.42;;
41518;Laerm;27249;48.094;-1.690;2023-05-13T08:51:14;56.33;51.43;62.46;;
41518;Laerm;27249;48.094;-1.690;2023-05-13T08:53:40;56.39;47.93;63.12;;
41518;Laerm;27249;48.094;-1.690;2023-05-13T08:56:07;55.79;49.30;60.59;;
41518;Laerm;27249;48.094;-1.690;2023-05-13T08:58:32;61.17;49.59;76.39;;
41518;Laerm;27249;48.094;-1.690;2023-05-13T09:00:57;57.10;48.05;63.84;;
41518;Laerm;27249;48.094;-1.690;2023-05-13T09:03:22;58.89;53.61;70.67;;
41518;Laerm;27249;48.094;-1.690;2023-05-13T09:05:48;56.14;50.77;65.41;;
41518;Laerm;27249;48.094;-1.690;2023-05-13T09:08:13;56.67;49.29;66.58;;
41518;Laerm;27249;48.094;-1.690;2023-05-13T09:10:39;58.37;49.81;78.22;;
41518;Laerm;27249;48.094;-1.690;2023-05-13T09:13:04;55.29;48.36;64.32;;
41518;Laerm;27249;48.094;-1.690;2023-05-13T09:15:30;58.05;52.36;65.66;;
41518;Laerm;27249;48.094;-1.690;2023-05-13T09:18:00;57.01;51.54;62.17;;
41518;Laerm;27249;48.094;-1.690;2023-05-13T09:20:27;56.38;47.12;66.78;;
41518;Laerm;27249;48.094;-1.690;2023-05-13T09:25:18;55.33;49.03;65.03;;
41518;Laerm;27249;48.094;-1.690;2023-05-13T09:27:47;57.06;48.80;65.41;;
41518;Laerm;27249;48.094;-1.690;2023-05-13T09:30:13;57.28;47.67;66.62;;
41518;Laerm;27249;48.094;-1.690;2023-05-13T09:32:39;57.05;50.02;69.75;;
41518;Laerm;27249;48.094;-1.690;2023-05-13T09:35:08;57.00;48.54;67.21;;
41518;Laerm;27249;48.094;-1.690;2023-05-13T09:37:34;56.56;50.26;65.11;;
41518;Laerm;27249;48.094;-1.690;2023-05-13T09:40:00;56.33;50.52;65.45;;
41518;Laerm;27249;48.094;-1.690;2023-05-13T09:42:25;55.95;49.34;64.42;;
41518;Laerm;27249;48.094;-1.690;2023-05-13T09:44:50;56.25;49.10;61.94;;
41518;Laerm;27249;48.094;-1.690;2023-05-13T09:47:16;56.81;48.71;68.07;;
41518;Laerm;27249;48.094;-1.690;2023-05-13T09:49:42;55.75;49.00;63.97;;
41518;Laerm;27249;48.094;-1.690;2023-05-13T09:52:08;55.72;50.74;63.79;;
41518;Laerm;27249;48.094;-1.690;2023-05-13T09:54:55;55.83;47.08;63.14;;
41518;Laerm;27249;48.094;-1.690;2023-05-13T09:57:20;56.95;49.91;63.75;;
41518;Laerm;27249;48.094;-1.690;2023-05-13T09:59:45;55.87;47.84;62.47;;
41518;Laerm;27249;48.094;-1.690;2023-05-13T10:02:10;57.87;51.01;68.21;;
41518;Laerm;27249;48.094;-1.690;2023-05-13T10:04:37;56.94;51.71;69.24;;
41518;Laerm;27249;48.094;-1.690;2023-05-13T10:07:02;56.22;49.51;63.84;;
41518;Laerm;27249;48.094;-1.690;2023-05-13T10:09:29;57.15;50.72;66.26;;
41518;Laerm;27249;48.094;-1.690;2023-05-13T10:11:57;56.44;47.72;65.04;;
41518;Laerm;27249;48.094;-1.690;2023-05-13T10:14:23;57.34;52.54;65.14;;
41518;Laerm;27249;48.094;-1.690;2023-05-13T10:16:49;57.28;49.04;68.97;;
41518;Laerm;27249;48.094;-1.690;2023-05-13T10:19:15;56.45;48.46;65.16;;
41518;Laerm;27249;48.094;-1.690;2023-05-13T10:21:41;56.09;48.63;62.64;;
41518;Laerm;27249;48.094;-1.690;2023-05-13T10:24:06;56.96;51.42;63.71;;
41518;Laerm;27249;48.094;-1.690;2023-05-13T10:26:32;55.90;50.46;65.80;;
41518;Laerm;27249;48.094;-1.690;2023-05-13T10:28:58;56.87;48.78;64.96;;
41518;Laerm;27249;48.094;-1.690;2023-05-13T10:31:23;56.86;47.76;64.64;;
41518;Laerm;27249;48.094;-1.690;2023-05-13T10:33:49;57.21;46.97;62.47;;
41518;Laerm;27249;48.094;-1.690;2023-05-13T10:44:19;56.49;47.05;62.91;;
41518;Laerm;27249;48.094;-1.690;2023-05-13T10:46:46;57.19;50.56;64.06;;
41518;Laerm;27249;48.094;-1.690;2023-05-13T10:49:15;56.42;51.22;65.34;;
41518;Laerm;27249;48.094;-1.690;2023-05-13T10:51:46;58.13;50.71;67.18;;
41518;Laerm;27249;48.094;-1.690;2023-05-13T10:54:17;56.89;49.78;66.16;;
41518;Laerm;27249;48.094;-1.690;2023-05-13T10:56:42;56.64;47.06;63.10;;
41518;Laerm;27249;48.094;-1.690;2023-05-13T10:59:07;58.26;49.20;66.89;;
41518;Laerm;27249;48.094;-1.690;2023-05-13T11:01:36;56.69;48.40;63.92;;
41518;Laerm;27249;48.094;-1.690;2023-05-13T11:04:09;56.54;48.99;63.44;;
41518;Laerm;27249;48.094;-1.690;2023-05-13T11:06:39;56.69;50.38;69.08;;
41518;Laerm;27249;48.094;-1.690;2023-05-13T11:09:11;55.55;47.44;63.91;;
41518;Laerm;27249;48.094;-1.690;2023-05-13T11:11:37;56.68;49.80;65.06;;
41518;Laerm;27249;48.094;-1.690;2023-05-13T11:14:20;56.57;50.36;64.18;;
41518;Laerm;27249;48.094;-1.690;2023-05-13T11:19:27;59.10;47.36;74.02;;
41518;Laerm;27249;48.094;-1.690;2023-05-13T11:21:56;56.82;50.57;63.07;;
41518;Laerm;27249;48.094;-1.690;2023-05-13T11:24:22;55.62;47.46;63.30;;
41518;Laerm;27249;48.094;-1.690;2023-05-13T11:29:13;57.64;50.06;65.47;;
41518;Laerm;27249;48.094;-1.690;2023-05-13T11:31:49;58.25;46.48;71.63;;
41518;Laerm;27249;48.094;-1.690;2023-05-13T11:34:17;55.49;48.03;64.39;;
41518;Laerm;27249;48.094;-1.690;2023-05-13T11:36:49;56.47;47.32;65.24;;
41518;Laerm;27249;48.094;-1.690;2023-05-13T11:39:20;56.19;46.84;65.63;;
41518;Laerm;27249;48.094;-1.690;2023-05-13T11:41:47;57.56;49.71;65.98;;
41518;Laerm;27249;48.094;-1.690;2023-05-13T11:44:14;55.88;46.66;65.17;;
41518;Laerm;27249;48.094;-1.690;2023-05-13T11:51:58;55.89;48.63;63.22;;
41518;Laerm;27249;48.094;-1.690;2023-05-13T11:54:24;57.06;48.61;67.32;;
41518;Laerm;27249;48.094;-1.690;2023-05-13T11:56:49;56.91;48.98;65.34;;
41518;Laerm;27249;48.094;-1.690;2023-05-13T11:59:14;60.66;50.13;75.48;;
41518;Laerm;27249;48.094;-1.690;2023-05-13T12:01:40;56.87;48.18;62.72;;
41518;Laerm;27249;48.094;-1.690;2023-05-13T12:04:05;55.91;48.76;62.58;;
41518;Laerm;27249;48.094;-1.690;2023-05-13T12:06:31;55.44;50.47;64.44;;
41518;Laerm;27249;48.094;-1.690;2023-05-13T12:09:03;56.54;48.49;62.38;;
41518;Laerm;27249;48.094;-1.690;2023-05-13T12:11:28;56.47;50.45;65.98;;
41518;Laerm;27249;48.094;-1.690;2023-05-13T12:13:54;55.55;47.81;62.37;;
41518;Laerm;27249;48.094;-1.690;2023-05-13T12:16:19;54.75;46.05;62.99;;
41518;Laerm;27249;48.094;-1.690;2023-05-13T12:18:53;56.66;49.44;69.94;;
41518;Laerm;27249;48.094;-1.690;2023-05-13T12:21:20;56.80;49.71;62.64;;
41518;Laerm;27249;48.094;-1.690;2023-05-13T12:23:45;56.27;47.34;64.82;;
41518;Laerm;27249;48.094;-1.690;2023-05-13T12:26:11;55.61;48.16;61.86;;
41518;Laerm;27249;48.094;-1.690;2023-05-13T12:28:36;56.47;46.84;63.01;;
41518;Laerm;27249;48.094;-1.690;2023-05-13T12:31:04;56.81;46.40;75.86;;
41518;Laerm;27249;48.094;-1.690;2023-05-13T12:33:30;56.69;47.67;69.59;;
41518;Laerm;27249;48.094;-1.690;2023-05-13T12:38:51;56.19;48.32;63.78;;
41518;Laerm;27249;48.094;-1.690;2023-05-13T12:41:17;54.46;48.34;71.42;;
41518;Laerm;27249;48.094;-1.690;2023-05-13T12:43:43;55.65;45.75;61.12;;
41518;Laerm;27249;48.094;-1.690;2023-05-13T12:46:08;55.25;47.38;61.98;;
41518;Laerm;27249;48.094;-1.690;2023-05-13T12:48:33;55.24;49.14;65.32;;
41518;Laerm;27249;48.094;-1.690;2023-05-13T12:50:58;55.91;48.40;63.99;;
41518;Laerm;27249;48.094;-1.690;2023-05-13T12:53:24;56.81;49.95;69.15;;
41518;Laerm;27249;48.094;-1.690;2023-05-13T12:55:49;56.16;50.13;67.18;;
41518;Laerm;27249;48.094;-1.690;2023-05-13T12:58:14;54.75;49.12;65.50;;
41518;Laerm;27249;48.094;-1.690;2023-05-13T13:00:40;56.05;47.83;65.35;;
41518;Laerm;27249;48.094;-1.690;2023-05-13T13:03:05;55.80;49.19;64.51;;
41518;Laerm;27249;48.094;-1.690;2023-05-13T13:05:31;56.63;49.57;66.33;;
41518;Laerm;27249;48.094;-1.690;2023-05-13T13:07:57;55.91;48.43;68.33;;
41518;Laerm;27249;48.094;-1.690;2023-05-13T13:10:22;56.62;48.87;65.31;;
41518;Laerm;27249;48.094;-1.690;2023-05-13T13:12:47;56.79;49.16;66.34;;
41518;Laerm;27249;48.094;-1.690;2023-05-13T13:15:13;55.36;50.05;62.26;;
41518;Laerm;27249;48.094;-1.690;2023-05-13T13:17:38;55.70;47.96;61.83;;
41518;Laerm;27249;48.094;-1.690;2023-05-13T13:20:04;55.08;46.32;62.15;;
41518;Laerm;27249;48.094;-1.690;2023-05-13T13:22:30;59.91;49.16;73.90;;
41518;Laerm;27249;48.094;-1.690;2023-05-13T13:24:56;57.09;50.88;64.83;;
41518;Laerm;27249;48.094;-1.690;2023-05-13T13:27:21;56.69;48.52;64.58;;
41518;Laerm;27249;48.094;-1.690;2023-05-13T13:29:46;56.68;49.90;67.24;;
41518;Laerm;27249;48.094;-1.690;2023-05-13T13:32:12;55.51;49.03;63.09;;
41518;Laerm;27249;48.094;-1.690;2023-05-13T13:34:37;55.33;48.48;62.26;;
41518;Laerm;27249;48.094;-1.690;2023-05-13T13:37:02;56.35;47.86;63.48;;
41518;Laerm;27249;48.094;-1.690;2023-05-13T13:39:27;55.57;48.96;64.93;;
41518;Laerm;27249;48.094;-1.690;2023-05-13T13:41:53;55.71;48.29;67.85;;
41518;Laerm;27249;48.094;-1.690;2023-05-13T13:44:18;56.26;48.57;66.52;;
41518;Laerm;27249;48.094;-1.690;2023-05-13T13:46:43;56.11;50.17;70.26;;
41518;Laerm;27249;48.094;-1.690;2023-05-13T13:49:09;56.07;49.12;64.59;;
41518;Laerm;27249;48.094;-1.690;2023-05-13T13:51:34;57.47;49.77;83.04;;